createdAt,value
2019-04-10T00:01:01.525Z,99905.05
2019-04-10T00:03:36.713Z,99898.57
2019-04-10T00:06:02.881Z,99893.25
2019-04-10T00:08:32.638Z,99892.20
2019-04-10T00:11:02.664Z,99889.94
2019-04-10T00:13:32.492Z,99896.30
2019-04-10T00:16:03.506Z,99888.52
2019-04-10T00:18:33.785Z,99891.12
2019-04-10T00:21:05.098Z,99891.61
2019-04-10T00:23:35.547Z,99896.56
2019-04-10T00:26:05.621Z,99898.34
2019-04-10T00:28:35.899Z,99892.92
2019-04-10T00:31:05.639Z,99892.33
2019-04-10T00:33:36.535Z,99893.63
2019-04-10T00:36:06.378Z,99888.77
2019-04-10T00:38:36.234Z,99885.84
2019-04-10T00:41:06.111Z,99890.20
2019-04-10T00:43:37.083Z,99889.73
2019-04-10T00:46:06.892Z,99887.03
2019-04-10T00:48:36.780Z,99879.47
2019-04-10T00:51:06.816Z,99891.64
2019-04-10T00:53:37.154Z,99892.47
2019-04-10T00:56:08.295Z,99892.23
2019-04-10T00:58:38.170Z,99887.28
2019-04-10T01:01:08.200Z,99890.47
2019-04-10T01:03:44.315Z,99883.14
2019-04-10T01:06:15.893Z,99887.30
2019-04-10T01:08:45.838Z,99885.73
2019-04-10T01:11:17.024Z,99887.03
2019-04-10T01:13:47.454Z,99887.03
2019-04-10T01:16:17.943Z,99889.18
2019-04-10T01:18:47.901Z,99889.18
2019-04-10T01:21:18.041Z,99889.52
2019-04-10T01:23:49.135Z,99895.31
2019-04-10T01:26:19.182Z,99894.48
2019-04-10T01:28:49.253Z,99898.02
2019-04-10T01:31:20.018Z,99896.61
2019-04-10T01:33:50.009Z,99899.57
2019-04-10T01:36:20.713Z,99908.64
2019-04-10T01:38:51.624Z,99904.63
2019-04-10T01:41:21.677Z,99903.67
2019-04-10T01:43:51.662Z,99905.09
2019-04-10T01:46:22.291Z,99904.50
2019-04-10T01:48:52.085Z,99907.22
2019-04-10T01:51:22.152Z,99902.84
2019-04-10T01:53:52.380Z,99907.06
2019-04-10T01:56:30.261Z,99903.17
2019-04-10T01:58:53.811Z,99903.17
2019-04-10T02:01:28.355Z,99899.88
2019-04-10T02:03:58.533Z,99901.28
2019-04-10T02:06:29.386Z,99903.17
2019-04-10T02:09:00.354Z,99905.75
2019-04-10T02:11:30.920Z,99909.16
2019-04-10T02:14:00.810Z,99914.27
2019-04-10T02:16:30.608Z,99910.14
2019-04-10T02:19:00.281Z,99906.95
2019-04-10T02:21:30.255Z,99908.22
2019-04-10T02:24:00.920Z,99911.54
2019-04-10T02:26:31.756Z,99914.02
2019-04-10T02:29:01.766Z,99911.31
2019-04-10T02:31:32.041Z,99909.89
2019-04-10T02:34:01.921Z,99908.38
2019-04-10T02:36:31.889Z,99907.78
2019-04-10T02:39:13.870Z,99905.99
2019-04-10T02:41:34.609Z,99907.86
2019-04-10T02:44:05.073Z,99910.97
2019-04-10T02:46:34.950Z,99917.56
2019-04-10T02:49:06.202Z,99918.50
2019-04-10T02:51:36.366Z,99926.88
2019-04-10T02:54:09.177Z,99929.81
2019-04-10T02:56:39.180Z,99926.89
2019-04-10T02:59:09.412Z,99932.52
2019-04-10T03:01:40.010Z,99933.11
2019-04-10T03:04:11.930Z,99923.23
2019-04-10T03:06:42.701Z,99937.14
2019-04-10T03:09:28.876Z,99941.13
2019-04-10T03:11:45.707Z,99934.77
2019-04-10T03:14:16.884Z,99920.50
2019-04-10T03:16:47.909Z,99924.27
2019-04-10T03:19:17.807Z,99917.67
2019-04-10T03:21:47.575Z,99924.57
2019-04-10T03:24:17.432Z,99913.95
2019-04-10T03:26:47.913Z,99922.64
2019-04-10T03:29:17.827Z,99927.23
2019-04-10T03:31:49.894Z,99936.21
2019-04-10T03:34:32.709Z,99945.02
2019-04-10T03:37:02.887Z,99943.95
2019-04-10T03:39:35.559Z,99944.78
2019-04-10T03:42:04.447Z,99950.34
2019-04-10T03:44:34.726Z,99946.91
2019-04-10T03:47:04.456Z,99957.66
2019-04-10T03:49:34.386Z,99958.30
2019-04-10T03:52:05.147Z,99952.52
2019-04-10T03:54:36.262Z,99953.73
2019-04-10T03:57:06.662Z,99964.70
2019-04-10T03:59:38.938Z,99961.14
2019-04-10T04:02:08.085Z,99970.82
2019-04-10T04:04:38.009Z,99967.86
2019-04-10T04:07:07.894Z,99965.63
2019-04-10T04:09:37.837Z,99968.36
2019-04-10T04:12:08.443Z,99965.08
2019-04-10T04:14:38.818Z,99971.88
2019-04-10T04:17:08.582Z,99975.91
2019-04-10T04:19:40.000Z,99981.70
2019-04-10T04:22:09.954Z,99981.83
2019-04-10T04:24:40.038Z,99982.23
2019-04-10T04:27:11.170Z,99980.98
2019-04-10T04:29:41.351Z,99980.39
2019-04-10T04:32:11.278Z,99976.17
2019-04-10T04:34:41.233Z,99972.79
2019-04-10T04:37:10.903Z,99967.72
2019-04-10T04:39:40.757Z,99975.64
2019-04-10T04:42:10.510Z,99975.52
2019-04-10T04:44:40.233Z,99980.92
2019-04-10T04:47:10.068Z,99992.84
2019-04-10T04:49:39.976Z,99999.36
2019-04-10T04:52:12.512Z,99994.12
2019-04-10T04:54:41.460Z,99994.14
2019-04-10T04:57:11.360Z,99991.91
2019-04-10T04:59:41.321Z,99984.73
2019-04-10T05:02:12.005Z,99991.03
2019-04-10T05:04:41.902Z,99994.09
2019-04-10T05:07:13.428Z,99989.38
2019-04-10T05:09:43.976Z,99990.31
2019-04-10T05:12:13.844Z,99989.34
2019-04-10T05:14:44.052Z,99988.41
2019-04-10T05:17:15.595Z,99991.95
2019-04-10T05:19:45.193Z,99996.68
2019-04-10T05:22:15.086Z,99998.47
2019-04-10T05:24:44.927Z,99998.72
2019-04-10T05:27:14.797Z,100005.80
2019-04-10T05:29:45.033Z,100007.68
2019-04-10T05:32:15.863Z,99999.53
2019-04-10T05:34:46.701Z,100005.91
2019-04-10T05:37:16.448Z,100009.09
2019-04-10T05:39:50.601Z,100010.30
2019-04-10T05:42:17.915Z,100016.91
2019-04-10T05:44:47.926Z,100014.39
2019-04-10T05:47:17.794Z,100026.69
2019-04-10T05:49:47.592Z,100020.05
2019-04-10T05:52:18.184Z,100017.55
2019-04-10T05:54:49.318Z,100017.69
2019-04-10T05:57:20.167Z,100018.85
2019-04-10T05:59:50.214Z,100029.16
2019-04-10T06:02:20.222Z,100027.78
2019-04-10T06:04:49.979Z,100031.69
2019-04-10T06:07:20.938Z,100041.27
2019-04-10T06:09:55.752Z,100045.46
2019-04-10T06:12:22.412Z,100044.52
2019-04-10T06:14:52.780Z,100058.22
2019-04-10T06:17:22.799Z,100055.07
2019-04-10T06:19:53.082Z,100058.36
2019-04-10T06:22:22.959Z,100056.61
2019-04-10T06:24:52.986Z,100057.53
2019-04-10T06:27:24.132Z,100061.30
2019-04-10T06:29:55.227Z,100065.17
2019-04-10T06:32:25.495Z,100066.25
2019-04-10T06:34:55.383Z,100068.02
2019-04-10T06:37:26.155Z,100070.80
2019-04-10T06:40:08.002Z,100071.70
2019-04-10T06:42:27.656Z,100075.83
2019-04-10T06:44:58.505Z,100078.80
2019-04-10T06:47:28.636Z,100082.13
2019-04-10T06:49:58.813Z,100081.52
2019-04-10T06:52:28.721Z,100081.54
2019-04-10T06:54:58.702Z,100085.58
2019-04-10T06:57:28.458Z,100087.11
2019-04-10T06:59:59.801Z,100084.99
2019-04-10T07:02:31.518Z,100086.67
2019-04-10T07:05:05.732Z,100082.37
2019-04-10T07:07:46.360Z,100094.20
2019-04-10T07:10:19.681Z,100090.19
2019-04-10T07:12:37.406Z,100085.25
2019-04-10T07:15:10.530Z,100090.20
2019-04-10T07:17:41.773Z,100092.09
2019-04-10T07:20:16.294Z,100094.69
2019-04-10T07:22:47.219Z,100100.12
2019-04-10T07:25:17.490Z,100097.90
2019-04-10T07:27:47.850Z,100095.65
2019-04-10T07:30:17.622Z,100103.43
2019-04-10T07:32:49.096Z,100108.98
2019-04-10T07:35:20.268Z,100107.45
2019-04-10T07:37:54.284Z,100099.77
2019-04-10T07:40:22.810Z,100105.52
2019-04-10T07:42:52.643Z,100105.37
2019-04-10T07:45:26.388Z,100113.66
2019-04-10T07:47:54.003Z,100116.77
2019-04-10T07:50:23.817Z,100119.70
2019-04-10T07:52:54.193Z,100116.69
2019-04-10T07:55:23.936Z,100126.34
2019-04-10T07:57:55.111Z,100125.80
2019-04-10T08:00:25.728Z,100130.96
2019-04-10T08:02:57.542Z,100137.53
2019-04-10T08:05:27.275Z,100138.94
2019-04-10T08:07:57.549Z,100133.26
2019-04-10T08:10:28.463Z,100134.56
2019-04-10T08:12:58.251Z,100130.91
2019-04-10T08:15:28.065Z,100130.70
2019-04-10T08:17:58.283Z,100135.29
2019-04-10T08:20:28.538Z,100137.32
2019-04-10T08:22:59.449Z,100139.63
2019-04-10T08:25:29.253Z,100142.11
2019-04-10T08:27:59.047Z,100135.48
2019-04-10T08:30:29.970Z,100142.70
2019-04-10T08:33:01.595Z,100146.59
2019-04-10T08:35:33.580Z,100148.84
2019-04-10T08:38:03.521Z,100145.27
2019-04-10T08:40:34.237Z,100141.59
2019-04-10T08:43:04.254Z,100142.52
2019-04-10T08:45:44.117Z,100142.16
2019-04-10T08:48:06.078Z,100140.80
2019-04-10T08:50:36.472Z,100136.63
2019-04-10T08:53:06.313Z,100139.02
2019-04-10T08:55:36.268Z,100145.14
2019-04-10T08:58:06.253Z,100144.45
2019-04-10T09:00:36.508Z,100143.72
2019-04-10T09:03:06.681Z,100138.30
2019-04-10T09:05:37.503Z,100144.98
2019-04-10T09:08:07.228Z,100141.38
2019-04-10T09:10:37.075Z,100141.73
2019-04-10T09:13:06.955Z,100141.12
2019-04-10T09:15:36.866Z,100148.72
2019-04-10T09:18:06.657Z,100145.97
2019-04-10T09:20:36.514Z,100143.39
2019-04-10T09:23:21.480Z,100148.13
2019-04-10T09:25:37.710Z,100146.60
2019-04-10T09:28:08.412Z,100147.32
2019-04-10T09:30:38.539Z,100149.42
2019-04-10T09:33:19.910Z,100140.50
2019-04-10T09:35:41.741Z,100151.09
2019-04-10T09:38:12.497Z,100138.05
2019-04-10T09:40:42.583Z,100140.80
2019-04-10T09:43:14.216Z,100145.86
2019-04-10T09:45:43.873Z,100141.34
2019-04-10T09:48:13.940Z,100140.91
2019-04-10T09:50:43.944Z,100141.23
2019-04-10T09:53:15.062Z,100138.26
2019-04-10T09:55:44.999Z,100138.77
2019-04-10T09:58:15.097Z,100139.50
2019-04-10T10:00:45.860Z,100138.54
2019-04-10T10:03:15.744Z,100138.78
2019-04-10T10:05:46.675Z,100129.86
2019-04-10T10:08:16.743Z,100130.67
2019-04-10T10:10:47.203Z,100133.47
2019-04-10T10:13:17.307Z,100134.14
2019-04-10T10:15:47.421Z,100138.04
2019-04-10T10:18:17.442Z,100131.91
2019-04-10T10:20:48.140Z,100139.16
2019-04-10T10:23:18.055Z,100141.03
2019-04-10T10:25:48.320Z,100140.27
2019-04-10T10:28:18.751Z,100136.77
2019-04-10T10:30:49.408Z,100137.02
2019-04-10T10:33:19.478Z,100135.97
2019-04-10T10:35:49.582Z,100144.59
2019-04-10T10:38:19.417Z,100147.12
2019-04-10T10:40:49.148Z,100143.92
2019-04-10T10:43:19.046Z,100144.55
2019-04-10T10:45:49.215Z,100149.06
2019-04-10T10:48:19.864Z,100145.10
2019-04-10T10:50:49.906Z,100154.30
2019-04-10T10:53:19.953Z,100144.27
2019-04-10T10:55:49.795Z,100150.39
2019-04-10T10:58:19.761Z,100145.97
2019-04-10T11:00:50.121Z,100144.99
2019-04-10T11:03:20.420Z,100146.00
2019-04-10T11:05:50.744Z,100149.77
2019-04-10T11:08:21.972Z,100152.55
2019-04-10T11:10:55.719Z,100154.00
2019-04-10T11:13:24.232Z,100151.61
2019-04-10T11:15:54.238Z,100156.83
2019-04-10T11:18:24.742Z,100158.81
2019-04-10T11:21:00.603Z,100156.67
2019-04-10T11:23:28.332Z,100161.97
2019-04-10T11:25:59.789Z,100160.78
2019-04-10T11:28:30.693Z,100161.80
2019-04-10T11:31:01.808Z,100160.36
2019-04-10T11:33:32.878Z,100154.73
2019-04-10T11:36:03.798Z,100154.45
2019-04-10T11:38:35.650Z,100160.62
2019-04-10T11:41:07.197Z,100161.54
2019-04-10T11:43:37.666Z,100154.45
2019-04-10T11:46:10.296Z,100155.08
2019-04-10T11:48:44.673Z,100159.86
2019-04-10T11:51:13.424Z,100160.70
2019-04-10T11:53:47.681Z,100157.03
2019-04-10T11:56:18.908Z,100162.03
2019-04-10T11:58:53.768Z,100160.66
2019-04-10T12:01:22.640Z,100165.09
2019-04-10T12:03:55.026Z,100156.60
2019-04-10T12:06:25.445Z,100159.03
2019-04-10T12:09:24.847Z,100156.67
2019-04-10T12:11:26.793Z,100156.48
2019-04-10T12:13:56.807Z,100156.77
2019-04-10T12:16:27.269Z,100147.45
2019-04-10T12:18:57.355Z,100145.83
2019-04-10T12:21:27.204Z,100151.78
2019-04-10T12:23:56.996Z,100150.93
2019-04-10T12:26:27.627Z,100145.98
2019-04-10T12:28:58.188Z,100148.50
2019-04-10T12:31:28.268Z,100150.42
2019-04-10T12:33:59.849Z,100158.75
2019-04-10T12:36:30.952Z,100154.03
2019-04-10T12:39:00.880Z,100156.73
2019-04-10T12:41:33.206Z,100150.72
2019-04-10T12:44:03.551Z,100146.95
2019-04-10T12:46:33.307Z,100145.69
2019-04-10T12:49:03.839Z,100145.36
2019-04-10T12:51:34.857Z,100149.94
2019-04-10T12:54:04.891Z,100149.27
2019-04-10T12:56:34.722Z,100159.92
2019-04-10T12:59:06.807Z,100148.45
2019-04-10T13:01:36.675Z,100154.00
2019-04-10T13:04:07.481Z,100152.50
2019-04-10T13:06:38.636Z,100147.27
2019-04-10T13:09:12.513Z,100148.17
2019-04-10T13:11:40.656Z,100154.53
2019-04-10T13:14:10.553Z,100160.88
2019-04-10T13:17:33.600Z,100155.83
2019-04-10T13:23:44.815Z,100158.45
2019-04-10T13:26:34.212Z,100153.27
2019-04-10T13:29:14.162Z,100143.52
2019-04-10T13:32:40.367Z,100149.45
2019-04-10T13:35:58.100Z,100145.66
2019-04-10T13:38:58.329Z,100130.19
2019-04-10T13:42:07.883Z,100143.04
2019-04-10T13:44:57.384Z,100143.04
2019-04-10T13:47:51.183Z,100153.75
2019-04-10T13:50:28.278Z,100148.84
2019-04-10T13:53:32.180Z,100151.10
2019-04-10T13:56:39.269Z,100155.16
2019-04-10T13:59:55.964Z,100150.54
2019-04-10T14:03:05.917Z,100151.59
2019-04-10T14:06:01.158Z,100151.75
2019-04-10T14:09:11.604Z,100163.49
2019-04-10T14:12:08.409Z,100160.43
2019-04-10T14:19:12.929Z,100159.63
2019-04-10T14:22:19.922Z,100164.30
2019-04-10T14:25:44.277Z,100163.64
2019-04-10T14:28:35.554Z,100165.02
2019-04-10T14:35:41.537Z,100164.29
2019-04-10T14:39:12.129Z,100160.47
2019-04-10T14:45:21.935Z,100162.87
2019-04-10T14:51:35.033Z,100162.09
2019-04-10T14:57:53.121Z,100155.42
2019-04-10T15:01:02.602Z,100152.51
2019-04-10T15:04:21.371Z,100159.95
2019-04-10T15:11:06.603Z,100162.51
2019-04-10T15:14:13.150Z,100164.09
2019-04-10T15:17:25.220Z,100163.91
2019-04-10T15:20:17.920Z,100176.91
2019-04-10T15:22:56.046Z,100165.82
2019-04-10T15:29:22.573Z,100169.88
2019-04-10T15:32:20.469Z,100171.05
2019-04-10T15:35:36.715Z,100125.53
2019-04-10T15:38:15.808Z,100182.71
2019-04-10T15:41:25.327Z,100177.18
2019-04-10T15:44:21.816Z,100185.44
2019-04-10T15:47:13.467Z,100179.75
2019-04-10T15:50:49.919Z,100184.58
2019-04-10T15:53:46.042Z,100175.38
2019-04-10T15:56:49.914Z,100184.47
2019-04-10T16:00:08.547Z,100180.45
2019-04-10T16:03:06.026Z,100186.13
2019-04-10T16:05:58.065Z,100190.45
2019-04-10T16:09:05.277Z,100183.25
2019-04-10T16:12:20.931Z,100183.87
2019-04-10T16:18:44.346Z,100186.59
2019-04-10T16:21:52.110Z,100185.39
2019-04-10T16:28:27.340Z,100192.80
2019-04-10T16:31:10.999Z,100195.02
2019-04-10T16:34:17.703Z,100200.95
2019-04-10T16:37:44.537Z,100207.23
2019-04-10T16:40:48.997Z,100195.59
2019-04-10T16:47:02.176Z,100203.83
2019-04-10T16:50:17.924Z,100205.99
2019-04-10T16:53:27.936Z,100209.20
2019-04-10T16:56:18.876Z,100209.08
2019-04-10T16:59:18.154Z,100218.06
2019-04-10T17:06:03.888Z,100222.81
2019-04-10T17:09:14.079Z,100226.34
2019-04-10T17:12:01.646Z,100227.41
2019-04-10T17:14:53.980Z,100231.53
2019-04-10T17:18:17.069Z,100226.91
2019-04-10T17:21:05.052Z,100229.88
2019-04-10T17:23:44.890Z,100238.48
2019-04-10T17:26:41.789Z,100238.84
2019-04-10T17:30:03.504Z,100246.25
2019-04-10T17:32:29.022Z,100249.81
2019-04-10T17:35:07.267Z,100246.74
2019-04-10T17:38:31.880Z,100263.41
2019-04-10T17:44:15.897Z,100264.48
2019-04-10T17:47:27.239Z,100157.44
2019-04-10T17:50:16.429Z,100264.72
2019-04-10T17:53:19.518Z,100271.69
2019-04-10T17:56:15.879Z,100274.52
2019-04-10T18:03:03.443Z,100275.45
2019-04-10T18:12:22.103Z,100288.26
2019-04-10T18:15:20.577Z,100280.35
2019-04-10T18:18:55.859Z,100281.98
2019-04-10T18:28:48.088Z,100288.73
2019-04-10T18:31:49.378Z,100293.09
2019-04-10T18:38:42.372Z,100300.63
2019-04-10T18:41:32.368Z,100305.33
2019-04-10T18:44:27.169Z,100299.16
2019-04-10T18:47:56.462Z,100303.38
2019-04-10T18:50:48.153Z,100306.31
2019-04-10T18:53:39.468Z,100306.87
2019-04-10T18:56:26.994Z,100308.25
2019-04-10T18:59:25.091Z,100314.06
2019-04-10T19:02:43.941Z,100316.47
2019-04-10T19:09:28.982Z,100314.95
2019-04-10T19:12:32.824Z,100314.39
2019-04-10T19:15:35.070Z,100314.95
2019-04-10T19:18:48.639Z,100318.47
2019-04-10T19:21:51.536Z,100314.06
2019-04-10T19:24:46.215Z,100318.60
2019-04-10T19:28:33.319Z,100313.36
2019-04-10T19:31:07.997Z,100321.59
2019-04-10T19:34:25.390Z,100322.37
2019-04-10T19:37:30.466Z,100320.93
2019-04-10T19:40:40.369Z,100320.80
2019-04-10T19:43:40.129Z,100316.80
2019-04-10T19:46:43.875Z,100311.59
2019-04-10T19:49:47.238Z,100317.27
2019-04-10T19:52:55.039Z,100317.97
2019-04-10T19:56:18.901Z,100324.70
2019-04-10T20:02:33.026Z,100321.17
2019-04-10T20:05:16.972Z,100323.26
2019-04-10T20:07:47.159Z,100314.56
2019-04-10T20:10:17.145Z,100319.53
2019-04-10T20:12:46.868Z,100319.30
2019-04-10T20:15:16.849Z,100322.14
2019-04-10T20:17:46.604Z,100320.84
2019-04-10T20:20:17.301Z,100322.00
2019-04-10T20:22:48.015Z,100323.34
2019-04-10T20:25:18.534Z,100319.67
2019-04-10T20:27:48.352Z,100327.48
2019-04-10T20:30:19.901Z,100334.95
2019-04-10T20:32:50.213Z,100334.25
2019-04-10T20:35:20.266Z,100326.45
2019-04-10T20:37:51.153Z,100333.91
2019-04-10T20:40:22.146Z,100326.91
2019-04-10T20:42:52.134Z,100329.61
2019-04-10T20:45:23.229Z,100332.95
2019-04-10T20:47:53.069Z,100330.62
2019-04-10T20:50:23.883Z,100329.52
2019-04-10T20:52:53.998Z,100329.52
2019-04-10T20:55:23.941Z,100325.20
2019-04-10T20:57:54.175Z,100326.45
2019-04-10T21:00:38.849Z,100330.72
2019-04-10T21:03:09.282Z,100328.72
2019-04-10T21:05:40.169Z,100325.64
2019-04-10T21:08:10.141Z,100330.75
2019-04-10T21:10:40.864Z,100326.14
2019-04-10T21:13:10.741Z,100323.95
2019-04-10T21:15:40.594Z,100324.08
2019-04-10T21:18:11.073Z,100329.88
2019-04-10T21:20:40.917Z,100325.75
2019-04-10T21:23:11.016Z,100330.62
2019-04-10T21:25:41.538Z,100327.18
2019-04-10T21:28:11.857Z,100324.34
2019-04-10T21:31:03.848Z,100325.37
2019-04-10T21:33:56.771Z,100328.11
2019-04-10T21:36:26.890Z,100332.48
2019-04-10T21:38:57.974Z,100329.05
2019-04-10T21:41:28.441Z,100334.84
2019-04-10T21:43:58.351Z,100335.22
2019-04-10T21:46:28.457Z,100334.81
2019-04-10T21:48:59.350Z,100340.34
2019-04-10T21:51:29.290Z,100344.48
2019-04-10T21:53:59.990Z,100341.23
2019-04-10T21:56:30.979Z,100337.13
2019-04-10T21:59:01.179Z,100339.38
2019-04-10T22:01:31.184Z,100340.76
2019-04-10T22:04:01.144Z,100341.49
2019-04-10T22:06:49.438Z,100336.48
2019-04-10T22:09:44.014Z,100340.89
2019-04-10T22:12:33.272Z,100333.23
2019-04-10T22:16:01.837Z,100336.16
2019-04-10T22:19:02.232Z,100333.42
2019-04-10T22:21:54.065Z,100231.19
2019-04-10T22:24:59.153Z,100338.09
2019-04-10T22:27:50.807Z,100336.72
2019-04-10T22:33:42.680Z,100337.34
2019-04-10T22:36:37.676Z,100340.59
2019-04-10T22:39:26.015Z,100340.23
2019-04-10T22:42:16.586Z,100337.31
2019-04-10T22:45:06.850Z,100334.62
2019-04-10T22:47:54.618Z,100333.73
2019-04-10T22:50:36.505Z,100336.06
2019-04-10T22:53:17.281Z,100335.13
2019-04-10T22:56:12.965Z,100331.55
2019-04-10T22:58:59.563Z,100331.55
2019-04-10T23:02:16.469Z,100328.16
2019-04-10T23:05:05.800Z,100323.80
2019-04-10T23:07:59.270Z,100319.68
2019-04-10T23:10:48.725Z,100320.47
2019-04-10T23:13:32.065Z,100315.86
2019-04-10T23:16:13.045Z,100316.14
2019-04-10T23:18:50.480Z,100324.25
2019-04-10T23:22:07.149Z,100320.52
2019-04-10T23:24:52.298Z,100322.75
2019-04-10T23:27:51.990Z,100331.16
2019-04-10T23:30:31.356Z,100327.35
2019-04-10T23:33:28.782Z,100317.72
2019-04-10T23:36:42.378Z,100317.96
2019-04-10T23:39:19.950Z,100321.83
2019-04-10T23:42:12.845Z,100317.55
2019-04-10T23:45:05.085Z,100315.48
2019-04-10T23:48:06.707Z,100315.54
2019-04-10T23:50:56.736Z,100325.80
2019-04-10T23:53:34.448Z,100318.14
2019-04-10T23:56:13.641Z,100320.75
2019-04-10T23:58:56.185Z,100317.23
